Time;durP1;ratioP1;P1;durP2;ratioP2;P2;SDS_P1;SDS_P2;PMS_P1;PMS_P2;Temp;Humidity;BMP_temperature;BMP_pressure;BME280_temperature;BME280_humidity;BME280_pressure;Samples;Min_cycle;Max_cycle;Signal;HPM_P1;HPM_P2
2023/04/08 00:01:03;;;;;;;;;;;;;;;8.73;56.93;92674.19;2054327;70;20053;-79
2023/04/08 00:03:29;;;;;;;;;;;;;;;8.61;58.07;92676.91;2054149;70;20062;-78
2023/04/08 00:05:55;;;;;;;;;;;;;;;8.81;56.31;92667.06;2054532;70;20054;-71
2023/04/08 00:08:20;;;;;;;;;;;;;;;8.75;56.94;92682.75;2054285;70;20047;-78
2023/04/08 00:10:45;;;;;;;;;;;;;;;8.61;57.36;92686.09;2054577;70;20057;-77
2023/04/08 00:13:12;;;;;;;;;;;;;;;8.66;57.47;92681.50;2048858;69;20414;-79
2023/04/08 00:15:37;;;;;;;;;;;;;;;8.79;56.72;92678.13;2034933;70;20052;-79
2023/04/08 00:18:03;;;;;;;;;;;;;;;8.79;57.84;92678.13;2035009;70;20052;-79
2023/04/08 00:20:28;;;;;;;;;;;;;;;8.77;57.48;92680.09;2038507;69;20049;-80
2023/04/08 00:22:54;;;;;;;;;;;;;;;8.71;57.92;92682.50;2038472;69;20438;-77
2023/04/08 00:25:19;;;;;;;;;;;;;;;8.77;56.94;92682.91;2035110;70;20059;-75
2023/04/08 00:27:45;;;;;;;;;;;;;;;8.82;56.75;92681.81;2038544;70;20048;-77
2023/04/08 00:30:10;;;;;;;;;;;;;;;8.76;57.84;92684.97;2035215;70;20051;-76
2023/04/08 00:32:36;;;;;;;;;;;;;;;8.62;59.19;92681.22;2038954;69;20044;-76
2023/04/08 00:35:04;;;;;;;;;;;;;;;8.50;58.24;92683.19;2035513;70;20197;-78
2023/04/08 00:37:30;;;;;;;;;;;;;;;8.29;60.09;92681.03;2035147;70;20048;-78
2023/04/08 00:39:57;;;;;;;;;;;;;;;8.33;58.46;92686.91;2038924;69;20056;-78
2023/04/08 00:42:23;;;;;;;;;;;;;;;8.12;59.26;92682.72;2035662;70;20084;-77
2023/04/08 00:44:49;;;;;;;;;;;;;;;8.47;58.42;92687.91;2035267;70;20099;-76
2023/04/08 00:47:15;;;;;;;;;;;;;;;8.54;58.22;92687.00;2038956;70;20087;-79
2023/04/08 00:49:42;;;;;;;;;;;;;;;8.59;58.93;92690.81;2039237;69;20056;-77
2023/04/08 00:52:07;;;;;;;;;;;;;;;8.50;58.34;92686.72;2038904;70;20056;-76
2023/04/08 00:54:35;;;;;;;;;;;;;;;8.06;60.93;92689.97;2038599;69;20511;-78
2023/04/08 00:57:05;;;;;;;;;;;;;;;8.08;61.06;92685.25;2034941;70;20063;-78
2023/04/08 00:59:38;;;;;;;;;;;;;;;8.26;58.71;92687.84;2038612;69;20142;-79
2023/04/08 01:02:23;;;;;;;;;;;;;;;8.12;60.65;92679.91;2038690;70;20056;-79
2023/04/08 01:04:54;;;;;;;;;;;;;;;8.29;59.44;92686.63;2038915;70;20401;-80
2023/04/08 01:07:27;;;;;;;;;;;;;;;7.97;59.79;92683.09;2039418;70;20058;-81
2023/04/08 01:10:04;;;;;;;;;;;;;;;7.87;61.90;92676.75;2037697;70;20084;-78
2023/04/08 01:12:31;;;;;;;;;;;;;;;8.08;60.35;92676.84;2038464;70;20091;-78
2023/04/08 01:15:07;;;;;;;;;;;;;;;8.24;60.41;92680.00;2041622;70;20056;-75
2023/04/08 01:17:34;;;;;;;;;;;;;;;8.17;61.47;92666.91;2041409;69;20083;-78
2023/04/08 01:20:01;;;;;;;;;;;;;;;8.20;59.92;92674.16;2036894;70;20052;-79
2023/04/08 01:22:34;;;;;;;;;;;;;;;8.39;58.42;92671.28;2036355;70;20066;-79
2023/04/08 01:25:09;;;;;;;;;;;;;;;8.22;59.62;92662.31;2039969;70;20587;-80
2023/04/08 01:27:36;;;;;;;;;;;;;;;8.29;59.92;92670.56;2039357;70;20091;-80
2023/04/08 01:30:03;;;;;;;;;;;;;;;8.27;59.70;92667.59;2035512;70;20480;-79
2023/04/08 01:32:31;;;;;;;;;;;;;;;8.24;59.37;92662.44;2039159;69;20052;-78
2023/04/08 01:34:57;;;;;;;;;;;;;;;8.24;59.45;92662.44;2038440;70;20436;-78
2023/04/08 01:37:24;;;;;;;;;;;;;;;8.28;59.52;92665.53;2035342;70;20076;-76
2023/04/08 01:39:53;;;;;;;;;;;;;;;8.24;59.43;92660.38;2038938;70;20084;-77
2023/04/08 01:42:19;;;;;;;;;;;;;;;8.22;60.14;92649.03;2035235;70;20059;-75
2023/04/08 01:44:45;;;;;;;;;;;;;;;8.22;59.37;92659.53;2038717;70;20074;-78
2023/04/08 01:47:12;;;;;;;;;;;;;;;8.18;60.03;92662.03;2038901;69;20048;-77
2023/04/08 01:49:38;;;;;;;;;;;;;;;8.01;60.42;92662.97;2038469;70;20092;-77
2023/04/08 01:52:05;;;;;;;;;;;;;;;7.66;62.06;92660.59;2039051;70;20432;-77
2023/04/08 01:54:30;;;;;;;;;;;;;;;7.88;60.33;92662.16;2035191;70;20044;-78
2023/04/08 01:56:56;;;;;;;;;;;;;;;8.03;60.21;92669.47;2038413;70;20136;-78
2023/04/08 01:59:23;;;;;;;;;;;;;;;8.11;61.39;92664.44;2038416;69;20143;-78
2023/04/08 02:01:49;;;;;;;;;;;;;;;8.04;61.47;92664.59;2035023;70;20091;-78
2023/04/08 02:04:15;;;;;;;;;;;;;;;8.09;61.13;92669.88;2035182;70;20052;-71
2023/04/08 02:06:41;;;;;;;;;;;;;;;8.02;61.58;92668.00;2035164;70;20060;-78
2023/04/08 02:09:07;;;;;;;;;;;;;;;8.06;61.63;92670.34;2038878;70;20055;-79
2023/04/08 02:11:33;;;;;;;;;;;;;;;8.19;60.43;92674.72;2038916;70;20075;-76
2023/04/08 02:13:59;;;;;;;;;;;;;;;8.15;59.90;92666.75;2034731;70;20518;-72
2023/04/08 02:16:30;;;;;;;;;;;;;;;8.13;60.00;92672.97;2038341;69;20064;-77
2023/04/08 02:19:01;;;;;;;;;;;;;;;8.14;59.62;92673.72;2038641;70;20519;-80
2023/04/08 02:21:33;;;;;;;;;;;;;;;8.17;60.31;92678.13;2038531;70;20067;-75
2023/04/08 02:24:02;;;;;;;;;;;;;;;7.50;62.57;92674.16;2035184;70;20091;-80
2023/04/08 02:26:28;;;;;;;;;;;;;;;7.83;61.86;92671.63;2038195;70;20050;-79
2023/04/08 02:28:55;;;;;;;;;;;;;;;7.95;61.35;92679.38;2054377;70;20252;-77
2023/04/08 02:31:22;;;;;;;;;;;;;;;8.00;60.03;92676.25;2054087;70;20091;-78
2023/04/08 02:33:48;;;;;;;;;;;;;;;8.07;60.63;92686.59;2054249;70;20153;-79
2023/04/08 02:36:14;;;;;;;;;;;;;;;8.01;60.83;92683.34;2051116;70;20193;-77
2023/04/08 02:38:40;;;;;;;;;;;;;;;8.16;59.68;92687.88;2048531;70;20081;-79
2023/04/08 02:41:05;;;;;;;;;;;;;;;8.18;60.52;92687.28;2051003;70;20054;-78
2023/04/08 02:43:31;;;;;;;;;;;;;;;8.17;61.07;92685.81;2054229;70;20908;-77
2023/04/08 02:45:57;;;;;;;;;;;;;;;8.24;60.47;92688.44;2051071;70;20054;-74
2023/04/08 02:48:23;;;;;;;;;;;;;;;8.11;62.63;92686.88;2052684;70;20522;-74
2023/04/08 02:50:50;;;;;;;;;;;;;;;8.14;62.28;92682.84;2051784;70;20148;-78
2023/04/08 02:53:15;;;;;;;;;;;;;;;8.11;64.06;92684.06;2047969;70;20153;-74
2023/04/08 02:55:41;;;;;;;;;;;;;;;8.02;64.76;92690.44;2050470;70;20213;-73
2023/04/08 02:58:06;;;;;;;;;;;;;;;8.16;63.55;92687.88;2053911;70;20062;-76
2023/04/08 03:00:32;;;;;;;;;;;;;;;8.12;63.50;92679.19;2053669;70;20403;-79
2023/04/08 03:02:57;;;;;;;;;;;;;;;8.13;63.70;92672.25;2053967;70;20077;-78
2023/04/08 03:05:23;;;;;;;;;;;;;;;8.04;63.90;92673.00;2053786;70;20161;-77
2023/04/08 03:07:48;;;;;;;;;;;;;;;7.98;63.64;92678.22;2053968;70;20054;-77
2023/04/08 03:10:14;;;;;;;;;;;;;;;7.78;64.40;92671.91;2054003;70;20062;-78
2023/04/08 03:12:40;;;;;;;;;;;;;;;7.67;64.00;92678.13;2053795;70;20116;-80
2023/04/08 03:15:06;;;;;;;;;;;;;;;7.80;63.67;92675.59;2053906;70;20062;-79
2023/04/08 03:17:33;;;;;;;;;;;;;;;7.85;64.48;92676.63;2054068;70;20410;-77
2023/04/08 03:19:59;;;;;;;;;;;;;;;7.70;64.60;92674.88;2050922;70;20050;-78
2023/04/08 03:22:24;;;;;;;;;;;;;;;7.71;64.45;92670.75;2054219;70;20153;-79
2023/04/08 03:24:50;;;;;;;;;;;;;;;7.75;63.55;92673.09;2054432;70;20054;-78
2023/04/08 03:27:16;;;;;;;;;;;;;;;7.81;64.22;92674.25;2054095;70;20141;-71
2023/04/08 03:29:41;;;;;;;;;;;;;;;7.81;64.06;92676.34;2054238;70;20497;-74
2023/04/08 03:32:07;;;;;;;;;;;;;;;7.54;64.93;92677.25;2054632;70;20054;-73
2023/04/08 03:34:33;;;;;;;;;;;;;;;7.46;66.15;92675.94;2055128;70;20074;-78
2023/04/08 03:36:58;;;;;;;;;;;;;;;7.74;64.29;92677.22;2054869;70;20066;-73
2023/04/08 03:39:24;;;;;;;;;;;;;;;7.74;64.85;92675.16;2051375;70;20133;-79
2023/04/08 03:41:50;;;;;;;;;;;;;;;7.77;64.43;92687.25;2054486;70;20502;-74
2023/04/08 03:44:16;;;;;;;;;;;;;;;7.74;65.19;92682.81;2054585;70;20054;-77
2023/04/08 03:46:43;;;;;;;;;;;;;;;7.82;63.86;92689.75;2054409;70;20074;-77
2023/04/08 03:49:14;;;;;;;;;;;;;;;7.90;64.46;92687.50;2054330;70;20062;-74
2023/04/08 03:51:40;;;;;;;;;;;;;;;7.84;64.49;92695.50;2054346;70;20494;-77
2023/04/08 03:54:06;;;;;;;;;;;;;;;7.78;63.00;92700.66;2054478;70;20066;-80
2023/04/08 03:56:32;;;;;;;;;;;;;;;7.72;64.89;92703.03;2054666;70;20054;-71
2023/04/08 03:58:57;;;;;;;;;;;;;;;7.61;65.88;92707.19;2054833;70;20093;-78
2023/04/08 04:01:22;;;;;;;;;;;;;;;7.70;64.16;92702.16;2054613;70;20066;-78
2023/04/08 04:03:48;;;;;;;;;;;;;;;7.68;65.01;92705.56;2054584;70;20082;-80
2023/04/08 04:06:13;;;;;;;;;;;;;;;7.69;64.77;92706.28;2054707;70;20146;-75
2023/04/08 04:08:39;;;;;;;;;;;;;;;7.58;65.05;92705.56;2054681;70;20441;-73
2023/04/08 04:11:04;;;;;;;;;;;;;;;7.57;65.32;92706.16;2054763;70;20477;-74
2023/04/08 04:13:30;;;;;;;;;;;;;;;7.60;65.30;92710.56;2054902;70;20074;-75
2023/04/08 04:15:56;;;;;;;;;;;;;;;7.73;64.71;92712.91;2054748;70;20479;-72
2023/04/08 04:18:21;;;;;;;;;;;;;;;7.82;64.47;92714.22;2054619;70;20513;-73
2023/04/08 04:20:47;;;;;;;;;;;;;;;7.79;64.49;92718.97;2054813;70;20172;-76
2023/04/08 04:23:12;;;;;;;;;;;;;;;7.77;64.99;92721.63;2054798;70;20146;-74
2023/04/08 04:25:41;;;;;;;;;;;;;;;7.73;64.60;92715.72;2055018;70;20418;-71
2023/04/08 04:28:07;;;;;;;;;;;;;;;7.80;64.95;92725.31;2054785;70;20086;-76
2023/04/08 04:30:35;;;;;;;;;;;;;;;7.82;63.55;92734.59;2054818;70;20605;-77
2023/04/08 04:33:00;;;;;;;;;;;;;;;7.81;64.46;92735.19;2054859;70;20052;-73
2023/04/08 04:35:26;;;;;;;;;;;;;;;7.79;65.23;92735.78;2051414;70;20046;-79
2023/04/08 04:37:51;;;;;;;;;;;;;;;7.73;65.43;92729.72;2054766;70;20090;-72
2023/04/08 04:40:17;;;;;;;;;;;;;;;7.80;64.75;92737.25;2054610;70;20137;-72
2023/04/08 04:42:42;;;;;;;;;;;;;;;7.46;66.84;92731.97;2054534;70;20215;-74
2023/04/08 04:45:08;;;;;;;;;;;;;;;7.14;67.88;92731.06;2051281;70;20061;-72
2023/04/08 04:47:34;;;;;;;;;;;;;;;7.34;66.53;92740.97;2054529;70;20054;-79
2023/04/08 04:50:00;;;;;;;;;;;;;;;7.25;66.72;92738.91;2054591;70;20415;-77
2023/04/08 04:52:25;;;;;;;;;;;;;;;7.44;67.86;92737.44;2054699;70;20106;-79
2023/04/08 04:54:51;;;;;;;;;;;;;;;7.56;66.25;92744.66;2054640;70;20467;-74
2023/04/08 04:57:16;;;;;;;;;;;;;;;7.66;66.22;92744.66;2054600;70;20456;-78
2023/04/08 04:59:41;;;;;;;;;;;;;;;7.56;66.51;92747.47;2054401;70;20086;-77
2023/04/08 05:02:07;;;;;;;;;;;;;;;7.50;66.06;92749.81;2054605;70;20070;-78
2023/04/08 05:04:32;;;;;;;;;;;;;;;7.17;67.70;92745.97;2053452;70;20121;-79
2023/04/08 05:06:58;;;;;;;;;;;;;;;6.65;69.89;92755.44;2054228;70;20472;-72
2023/04/08 05:09:24;;;;;;;;;;;;;;;6.93;69.42;92754.03;2054568;70;20051;-75
2023/04/08 05:11:49;;;;;;;;;;;;;;;7.33;67.47;92761.91;2054550;70;20489;-75
2023/04/08 05:14:15;;;;;;;;;;;;;;;7.36;67.53;92757.19;2055011;70;20478;-72
2023/04/08 05:16:40;;;;;;;;;;;;;;;7.37;66.91;92756.56;2053489;70;20083;-77
2023/04/08 05:19:06;;;;;;;;;;;;;;;7.55;66.23;92759.97;2054245;70;20054;-77
2023/04/08 05:21:32;;;;;;;;;;;;;;;7.59;67.04;92759.53;2051236;70;20074;-80
2023/04/08 05:23:57;;;;;;;;;;;;;;;7.58;67.22;92766.47;2054648;70;20091;-76
2023/04/08 05:26:23;;;;;;;;;;;;;;;7.61;66.66;92770.91;2054657;70;20136;-76
2023/04/08 05:28:49;;;;;;;;;;;;;;;7.57;67.30;92770.59;2032345;70;20088;-75
2023/04/08 05:31:15;;;;;;;;;;;;;;;7.66;67.12;92767.06;2032065;70;20161;-79
2023/04/08 05:33:41;;;;;;;;;;;;;;;7.69;66.46;92773.53;2032207;70;20492;-79
2023/04/08 05:36:06;;;;;;;;;;;;;;;7.68;66.87;92777.66;2044937;70;20088;-73
2023/04/08 05:38:39;;;;;;;;;;;;;;;7.53;66.53;92773.84;2032174;70;20056;-79
2023/04/08 05:41:05;;;;;;;;;;;;;;;7.36;67.81;92766.31;2032225;70;20057;-79
2023/04/08 05:43:33;;;;;;;;;;;;;;;7.39;68.29;92770.00;2031919;70;20454;-79
2023/04/08 05:45:58;;;;;;;;;;;;;;;7.22;68.59;92775.75;2031284;70;20149;-77
2023/04/08 05:48:24;;;;;;;;;;;;;;;7.02;69.27;92770.13;2030438;70;20082;-78
2023/04/08 05:50:50;;;;;;;;;;;;;;;7.20;69.39;92770.72;2041580;70;20140;-72
2023/04/08 05:53:15;;;;;;;;;;;;;;;7.45;68.13;92778.84;2028977;70;20058;-79
2023/04/08 05:55:41;;;;;;;;;;;;;;;7.24;68.61;92779.44;2028902;70;20148;-79
2023/04/08 05:58:06;;;;;;;;;;;;;;;7.49;67.61;92784.00;2028899;70;20108;-78
2023/04/08 06:00:32;;;;;;;;;;;;;;;7.36;68.59;92779.56;2028896;70;20057;-77
2023/04/08 06:02:57;;;;;;;;;;;;;;;7.44;68.25;92777.38;2030631;70;20056;-81
2023/04/08 06:05:23;;;;;;;;;;;;;;;7.55;67.36;92787.25;2032863;70;20171;-78
2023/04/08 06:07:48;;;;;;;;;;;;;;;7.63;67.71;92790.66;2032932;70;20120;-79
2023/04/08 06:10:14;;;;;;;;;;;;;;;7.79;66.72;92793.88;2032078;70;20061;-73
2023/04/08 06:12:40;;;;;;;;;;;;;;;8.01;65.76;92784.28;2047636;70;20148;-73
2023/04/08 06:15:07;;;;;;;;;;;;;;;8.05;65.72;92783.81;2044657;70;20049;-80
2023/04/08 06:17:34;;;;;;;;;;;;;;;8.10;66.08;92779.97;2029118;70;20684;-79
2023/04/08 06:20:00;;;;;;;;;;;;;;;8.09;66.15;92782.03;2028882;70;20057;-78
2023/04/08 06:22:28;;;;;;;;;;;;;;;8.11;66.49;92781.47;2028875;70;20059;-75
2023/04/08 06:24:53;;;;;;;;;;;;;;;8.31;65.32;92774.47;2029278;70;20077;-76
2023/04/08 06:27:19;;;;;;;;;;;;;;;8.26;66.09;92777.59;2037396;70;20057;-77
2023/04/08 06:29:46;;;;;;;;;;;;;;;8.12;65.35;92782.94;2050851;70;20473;-79
2023/04/08 06:32:11;;;;;;;;;;;;;;;7.53;67.68;92785.06;2051093;70;20138;-79
2023/04/08 06:34:37;;;;;;;;;;;;;;;7.98;66.46;92777.06;2051363;70;20492;-81
2023/04/08 06:37:03;;;;;;;;;;;;;;;8.09;66.58;92784.84;2051016;70;20101;-80
2023/04/08 06:39:28;;;;;;;;;;;;;;;7.77;67.57;92777.66;2051260;70;20146;-80
2023/04/08 06:41:53;;;;;;;;;;;;;;;8.00;66.60;92782.81;2051133;70;20081;-80
2023/04/08 06:44:32;;;;;;;;;;;;;;;8.04;65.77;92785.16;2047674;70;20051;-77
2023/04/08 06:46:58;;;;;;;;;;;;;;;7.28;67.66;92787.38;2054512;69;20093;-78
2023/04/08 06:49:23;;;;;;;;;;;;;;;8.06;65.82;92791.66;2055868;69;20116;-76
2023/04/08 06:51:49;;;;;;;;;;;;;;;7.49;66.73;92792.41;2056364;69;20145;-77
2023/04/08 06:54:14;;;;;;;;;;;;;;;8.18;65.04;92794.56;2054861;69;20101;-74
2023/04/08 06:56:40;;;;;;;;;;;;;;;8.69;63.39;92789.00;2054170;69;20116;-77
2023/04/08 06:59:05;;;;;;;;;;;;;;;8.93;63.30;92792.72;2056225;69;20046;-76
2023/04/08 07:01:31;;;;;;;;;;;;;;;8.96;62.51;92794.34;2056758;69;20493;-76
2023/04/08 07:03:56;;;;;;;;;;;;;;;9.21;63.35;92786.22;2055748;69;20085;-78
2023/04/08 07:06:23;;;;;;;;;;;;;;;9.28;62.09;92790.91;2056190;69;20051;-79
2023/04/08 07:08:48;;;;;;;;;;;;;;;9.28;61.34;92798.59;2054578;70;20057;-79
2023/04/08 07:11:14;;;;;;;;;;;;;;;9.43;60.58;92790.50;2048236;70;20054;-78
2023/04/08 07:13:40;;;;;;;;;;;;;;;9.64;61.05;92795.41;2051697;70;20563;-80
2023/04/08 07:16:06;;;;;;;;;;;;;;;9.66;59.42;92795.50;2051798;69;20434;-80
2023/04/08 07:18:31;;;;;;;;;;;;;;;9.60;58.70;92797.94;2055686;69;20080;-77
2023/04/08 07:20:57;;;;;;;;;;;;;;;9.72;58.10;92798.00;2056005;69;20455;-81
2023/04/08 07:23:22;;;;;;;;;;;;;;;9.47;60.07;92806.16;2056115;69;20164;-71
2023/04/08 07:25:48;;;;;;;;;;;;;;;9.88;59.09;92815.19;2056250;69;20042;-82
2023/04/08 07:28:13;;;;;;;;;;;;;;;9.32;59.63;92804.50;2055534;69;20129;-81
2023/04/08 07:30:39;;;;;;;;;;;;;;;9.20;59.80;92809.28;2056602;69;20088;-81
2023/04/08 07:33:04;;;;;;;;;;;;;;;8.74;60.98;92804.78;2054296;69;20042;-82
2023/04/08 07:35:30;;;;;;;;;;;;;;;8.39;62.15;92811.53;2057689;69;20046;-83
2023/04/08 07:37:56;;;;;;;;;;;;;;;8.14;62.80;92811.09;2057547;69;20436;-78
2023/04/08 07:40:22;;;;;;;;;;;;;;;8.50;62.48;92815.06;2050586;70;20051;-81
2023/04/08 07:42:48;;;;;;;;;;;;;;;8.11;62.27;92807.44;2050990;70;20054;-82
2023/04/08 07:45:13;;;;;;;;;;;;;;;8.01;63.66;92814.38;2050892;70;20522;-80
2023/04/08 07:47:39;;;;;;;;;;;;;;;8.04;62.34;92796.38;2051055;70;20050;-83
2023/04/08 07:50:05;;;;;;;;;;;;;;;8.60;61.56;92815.75;2050152;70;20624;-82
2023/04/08 07:52:31;;;;;;;;;;;;;;;9.22;60.37;92815.78;2050007;70;20051;-81
2023/04/08 07:54:56;;;;;;;;;;;;;;;9.57;57.73;92807.56;2050191;70;20058;-78
2023/04/08 07:57:22;;;;;;;;;;;;;;;9.31;59.04;92814.25;2046959;70;20239;-80
2023/04/08 07:59:47;;;;;;;;;;;;;;;8.89;60.51;92810.78;2052120;70;20438;-81
2023/04/08 08:02:13;;;;;;;;;;;;;;;9.32;58.63;92818.53;2050212;70;20094;-81
2023/04/08 08:04:38;;;;;;;;;;;;;;;9.19;58.57;92816.97;2056651;70;20026;-72
2023/04/08 08:07:04;;;;;;;;;;;;;;;9.11;58.34;92816.44;2054497;70;20486;-79
2023/04/08 08:09:30;;;;;;;;;;;;;;;9.37;58.96;92823.81;2055271;69;20123;-80
2023/04/08 08:11:55;;;;;;;;;;;;;;;9.13;60.42;92816.56;2055542;70;20058;-73
2023/04/08 08:14:25;;;;;;;;;;;;;;;8.69;60.81;92819.88;2055354;70;20117;-78
2023/04/08 08:16:54;;;;;;;;;;;;;;;8.49;61.11;92824.81;2054914;70;20486;-75
2023/04/08 08:19:20;;;;;;;;;;;;;;;8.50;62.02;92823.47;2053390;70;20118;-71
2023/04/08 08:21:45;;;;;;;;;;;;;;;9.00;60.42;92825.50;2048259;70;20509;-80
2023/04/08 08:24:11;;;;;;;;;;;;;;;9.20;60.80;92829.69;2048256;70;20057;-73
2023/04/08 08:26:36;;;;;;;;;;;;;;;9.72;59.66;92834.56;2051436;70;20098;-71
2023/04/08 08:29:02;;;;;;;;;;;;;;;9.09;60.96;92821.91;2051621;70;20046;-71
2023/04/08 08:31:28;;;;;;;;;;;;;;;9.47;59.15;92825.84;2051272;70;20513;-73
2023/04/08 08:33:53;;;;;;;;;;;;;;;9.79;59.02;92825.16;2051311;70;20553;-71
2023/04/08 08:36:19;;;;;;;;;;;;;;;9.30;58.78;92819.16;2051626;70;20139;-73
2023/04/08 08:38:44;;;;;;;;;;;;;;;10.33;58.18;92824.44;2051396;70;20062;-81
2023/04/08 08:41:10;;;;;;;;;;;;;;;10.04;56.32;92830.31;2051351;70;20436;-80
2023/04/08 08:43:36;;;;;;;;;;;;;;;10.94;55.47;92830.31;2051512;70;20058;-71
2023/04/08 08:46:02;;;;;;;;;;;;;;;11.24;53.74;92823.00;2051360;70;20055;-77
2023/04/08 08:48:30;;;;;;;;;;;;;;;11.27;53.47;92826.66;2052226;70;20475;-72
2023/04/08 08:50:56;;;;;;;;;;;;;;;10.92;55.73;92825.31;2051935;70;20067;-78
2023/04/08 08:53:27;;;;;;;;;;;;;;;10.74;54.69;92826.25;2051541;70;20149;-72
2023/04/08 08:55:53;;;;;;;;;;;;;;;11.55;54.02;92819.16;2051384;70;20043;-70
2023/04/08 08:58:18;;;;;;;;;;;;;;;11.52;52.65;92818.31;2051290;70;20489;-73
2023/04/08 09:00:44;;;;;;;;;;;;;;;12.21;51.14;92827.22;2051102;70;20058;-73
2023/04/08 09:03:20;;;;;;;;;;;;;;;12.35;52.66;92825.19;2051304;70;20467;-73
2023/04/08 09:05:49;;;;;;;;;;;;;;;11.84;51.96;92816.69;2048045;70;20055;-77
2023/04/08 09:08:34;;;;;;;;;;;;;;;11.15;54.21;92815.41;2051234;70;20518;-70
2023/04/08 09:11:11;;;;;;;;;;;;;;;11.76;52.08;92813.34;2051367;70;20057;-71
2023/04/08 09:13:36;;;;;;;;;;;;;;;12.91;50.91;92812.72;2048001;70;20050;-71
2023/04/08 09:16:09;;;;;;;;;;;;;;;13.00;49.44;92816.00;2051302;70;20046;-71
2023/04/08 09:18:36;;;;;;;;;;;;;;;13.86;49.68;92810.59;2050992;70;20057;-71
2023/04/08 09:21:02;;;;;;;;;;;;;;;14.20;48.78;92805.94;2051613;70;20050;-72
2023/04/08 09:23:36;;;;;;;;;;;;;;;14.22;47.64;92800.38;2051825;70;20051;-72
2023/04/08 09:26:06;;;;;;;;;;;;;;;13.46;48.34;92795.84;2051620;70;20059;-81
2023/04/08 09:28:32;;;;;;;;;;;;;;;13.75;46.16;92797.31;2044910;70;20088;-76
2023/04/08 09:30:58;;;;;;;;;;;;;;;14.97;43.87;92797.53;2031917;70;20052;-72
2023/04/08 09:33:29;;;;;;;;;;;;;;;15.46;41.22;92790.50;2032879;70;20084;-79
2023/04/08 09:35:55;;;;;;;;;;;;;;;15.95;40.04;92798.34;2037786;70;20059;-72
2023/04/08 09:38:21;;;;;;;;;;;;;;;16.37;39.33;92792.97;2035425;70;20474;-82
2023/04/08 09:40:46;;;;;;;;;;;;;;;16.85;38.93;92784.94;2033292;70;20060;-81
2023/04/08 09:43:12;;;;;;;;;;;;;;;17.08;38.14;92781.56;2032115;70;20096;-80
2023/04/08 09:45:40;;;;;;;;;;;;;;;17.24;35.20;92782.19;2032048;70;20092;-82
2023/04/08 09:48:11;;;;;;;;;;;;;;;16.50;36.46;92777.88;2032159;70;20129;-82
2023/04/08 09:50:41;;;;;;;;;;;;;;;16.01;40.03;92779.44;2032170;70;20060;-82
2023/04/08 09:53:27;;;;;;;;;;;;;;;15.99;39.68;92768.00;2032186;70;20053;-81
2023/04/08 09:55:55;;;;;;;;;;;;;;;15.31;40.37;92765.75;2034066;70;20013;-81
2023/04/08 09:58:37;;;;;;;;;;;;;;;16.96;36.26;92770.47;2034258;70;20059;-81
2023/04/08 10:01:03;;;;;;;;;;;;;;;16.96;34.69;92767.63;2035353;70;20095;-82
2023/04/08 10:03:32;;;;;;;;;;;;;;;16.98;34.98;92759.16;2048190;70;20158;-81
2023/04/08 10:06:00;;;;;;;;;;;;;;;16.27;33.37;92765.59;2035415;70;20139;-78
2023/04/08 10:08:26;;;;;;;;;;;;;;;16.65;35.27;92756.44;2035397;70;20052;-82
2023/04/08 10:10:52;;;;;;;;;;;;;;;16.32;35.37;92757.97;2035195;70;20050;-81
2023/04/08 10:13:17;;;;;;;;;;;;;;;15.66;34.99;92759.47;2035262;70;20147;-81
2023/04/08 10:15:44;;;;;;;;;;;;;;;15.17;36.03;92760.16;2035208;70;20496;-79
2023/04/08 10:18:10;;;;;;;;;;;;;;;15.21;35.76;92757.50;2035479;70;20492;-80
2023/04/08 10:20:35;;;;;;;;;;;;;;;14.86;36.56;92755.94;2035413;70;20052;-79
2023/04/08 10:23:01;;;;;;;;;;;;;;;15.14;36.29;92753.66;2035561;70;20142;-80
2023/04/08 10:25:30;;;;;;;;;;;;;;;15.55;35.79;92744.09;2035468;70;20225;-78
2023/04/08 10:27:56;;;;;;;;;;;;;;;14.53;37.40;92742.38;2047442;70;20050;-80
2023/04/08 10:30:27;;;;;;;;;;;;;;;13.67;37.93;92746.00;2054308;70;20475;-81
2023/04/08 10:32:55;;;;;;;;;;;;;;;13.70;36.68;92730.59;2051175;70;20054;-79
2023/04/08 10:35:36;;;;;;;;;;;;;;;13.91;37.15;92738.69;2054373;70;20116;-77
2023/04/08 10:38:02;;;;;;;;;;;;;;;13.63;36.71;92740.13;2054456;70;20425;-79
2023/04/08 10:40:28;;;;;;;;;;;;;;;14.01;34.36;92732.06;2054432;70;20053;-77
2023/04/08 10:42:56;;;;;;;;;;;;;;;14.04;35.30;92739.31;2054601;70;20184;-78
2023/04/08 10:45:22;;;;;;;;;;;;;;;15.39;33.54;92735.59;2054359;70;20099;-77
2023/04/08 10:47:48;;;;;;;;;;;;;;;14.28;33.56;92739.72;2057048;70;20081;-75
2023/04/08 10:50:18;;;;;;;;;;;;;;;14.23;31.66;92736.72;2057104;70;20077;-81
2023/04/08 10:52:47;;;;;;;;;;;;;;;14.05;33.79;92735.81;2054947;70;20046;-80
2023/04/08 10:55:13;;;;;;;;;;;;;;;14.07;31.46;92721.06;2054653;70;20081;-80
2023/04/08 10:57:40;;;;;;;;;;;;;;;14.77;31.10;92728.59;2054751;70;20093;-81
2023/04/08 11:00:26;;;;;;;;;;;;;;;14.63;30.76;92725.13;2054517;70;20490;-73
2023/04/08 11:02:51;;;;;;;;;;;;;;;12.89;32.85;92722.22;2055838;70;20022;-73
2023/04/08 11:05:21;;;;;;;;;;;;;;;13.12;32.61;92726.94;2055460;70;20070;-81
2023/04/08 11:07:46;;;;;;;;;;;;;;;13.30;33.77;92727.19;2055419;70;20050;-82
2023/04/08 11:10:12;;;;;;;;;;;;;;;13.18;33.34;92730.06;2051394;70;20132;-82
2023/04/08 11:12:37;;;;;;;;;;;;;;;12.92;33.59;92726.63;2054409;70;20158;-82
2023/04/08 11:15:03;;;;;;;;;;;;;;;13.11;32.94;92736.06;2050959;70;20222;-80
2023/04/08 11:17:29;;;;;;;;;;;;;;;12.30;33.67;92730.34;2056658;69;20200;-80
2023/04/08 11:19:55;;;;;;;;;;;;;;;12.29;34.13;92737.38;2056642;69;20089;-81
2023/04/08 11:22:22;;;;;;;;;;;;;;;12.35;34.49;92742.59;2051063;70;20050;-82
2023/04/08 11:24:48;;;;;;;;;;;;;;;12.11;36.02;92739.19;2054483;70;20054;-80
2023/04/08 11:27:14;;;;;;;;;;;;;;;12.51;35.03;92748.41;2054291;70;20475;-77
2023/04/08 11:29:40;;;;;;;;;;;;;;;12.48;35.21;92747.56;2054542;70;20069;-81
2023/04/08 11:32:07;;;;;;;;;;;;;;;12.66;35.76;92754.19;2051169;70;20051;-79
2023/04/08 11:34:37;;;;;;;;;;;;;;;13.18;34.55;92754.78;2054646;70;20113;-73
2023/04/08 11:37:03;;;;;;;;;;;;;;;12.97;34.70;92759.38;2051675;70;20074;-71
2023/04/08 11:39:29;;;;;;;;;;;;;;;12.03;36.48;92747.19;2055225;70;20090;-73
2023/04/08 11:41:54;;;;;;;;;;;;;;;11.74;37.19;92756.09;2055124;70;20088;-78
2023/04/08 11:44:28;;;;;;;;;;;;;;;11.47;38.43;92751.03;2054976;70;20058;-76
2023/04/08 11:46:55;;;;;;;;;;;;;;;11.32;39.57;92749.47;2054850;70;20066;-82
2023/04/08 11:49:20;;;;;;;;;;;;;;;12.24;37.49;92749.06;2055169;70;20053;-78
2023/04/08 11:51:54;;;;;;;;;;;;;;;12.39;37.93;92740.75;2055047;70;20046;-81
2023/04/08 11:54:29;;;;;;;;;;;;;;;13.55;36.53;92748.94;2054821;70;20584;-79
2023/04/08 11:56:57;;;;;;;;;;;;;;;12.67;36.81;92740.81;2057044;69;20050;-75
2023/04/08 11:59:22;;;;;;;;;;;;;;;13.67;35.98;92743.16;2054832;70;20474;-72
2023/04/08 12:01:48;;;;;;;;;;;;;;;12.14;37.29;92743.56;2051564;70;20047;-73
2023/04/08 12:04:13;;;;;;;;;;;;;;;13.47;36.43;92734.41;2054760;70;20161;-72
2023/04/08 12:06:42;;;;;;;;;;;;;;;13.14;36.16;92729.84;2054842;69;20054;-76
2023/04/08 12:09:08;;;;;;;;;;;;;;;12.50;36.67;92733.53;2054809;70;20046;-75
2023/04/08 12:11:33;;;;;;;;;;;;;;;13.13;36.29;92738.97;2055063;70;20053;-73
2023/04/08 12:13:59;;;;;;;;;;;;;;;12.98;36.25;92729.03;2055158;69;20082;-72
2023/04/08 12:16:24;;;;;;;;;;;;;;;13.10;35.69;92738.16;2057885;70;20054;-80
2023/04/08 12:18:50;;;;;;;;;;;;;;;13.70;35.48;92722.84;2059457;69;20077;-82
2023/04/08 12:21:15;;;;;;;;;;;;;;;13.64;35.19;92733.84;2055947;70;20038;-80
2023/04/08 12:23:41;;;;;;;;;;;;;;;13.49;34.73;92734.50;2055320;69;20046;-79
2023/04/08 12:26:06;;;;;;;;;;;;;;;13.57;34.70;92725.69;2055102;70;20081;-77
2023/04/08 12:28:34;;;;;;;;;;;;;;;14.04;34.47;92730.81;2054809;70;20138;-80
2023/04/08 12:30:59;;;;;;;;;;;;;;;13.80;34.60;92730.34;2054722;70;20478;-78
2023/04/08 12:33:25;;;;;;;;;;;;;;;14.11;34.71;92730.47;2054778;70;20114;-81
2023/04/08 12:35:51;;;;;;;;;;;;;;;13.22;35.02;92723.94;2054858;70;20160;-79
2023/04/08 12:38:16;;;;;;;;;;;;;;;13.86;35.04;92733.47;2054789;70;20130;-76
2023/04/08 12:40:41;;;;;;;;;;;;;;;13.95;34.66;92730.41;2054711;69;20142;-79
2023/04/08 12:43:07;;;;;;;;;;;;;;;13.24;35.02;92726.88;2051443;70;20149;-81
2023/04/08 12:45:32;;;;;;;;;;;;;;;13.80;35.28;92733.91;2054605;70;20042;-78
2023/04/08 12:47:58;;;;;;;;;;;;;;;13.71;34.57;92732.78;2054713;70;20399;-80
2023/04/08 12:50:23;;;;;;;;;;;;;;;12.07;37.47;92731.22;2054675;70;20066;-82